Time;durP1;ratioP1;P1;durP2;ratioP2;P2;SDS_P1;SDS_P2;PMS_P1;PMS_P2;Temp;Humidity;BMP_temperature;BMP_pressure;BME280_temperature;BME280_humidity;BME280_pressure;Samples;Min_cycle;Max_cycle;Signal;HPM_P1;HPM_P2
2023/05/04 00:00:29;;;;;;;13.27;7.82;;;;;;;15.20;60.01;100179.47;4308942;33;20126;-87
2023/05/04 00:02:54;;;;;;;12.25;8.52;;;;;;;15.23;60.01;100178.47;4320929;33;20122;-87
2023/05/04 00:05:19;;;;;;;12.40;8.57;;;;;;;15.27;60.02;100178.28;4321004;33;20489;-88
2023/05/04 00:07:45;;;;;;;11.75;8.07;;;;;;;15.31;60.02;100181.59;4333192;33;20433;-88
2023/05/04 00:10:11;;;;;;;13.60;7.97;;;;;;;15.34;60.02;100168.34;4308807;33;20154;-87
2023/05/04 00:12:38;;;;;;;11.00;7.40;;;;;;;15.31;60.02;100176.34;4321110;33;20484;-87
2023/05/04 00:15:05;;;;;;;11.20;7.97;;;;;;;15.29;60.02;100173.81;4334461;33;20100;-87
2023/05/04 00:17:31;;;;;;;11.30;7.18;;;;;;;15.41;60.03;100164.56;4334466;33;20101;-87
2023/05/04 00:19:57;;;;;;;9.75;6.97;;;;;;;15.45;60.03;100165.25;4321119;33;20135;-86
2023/05/04 00:22:22;;;;;;;12.02;7.22;;;;;;;15.41;60.03;100167.19;4336921;33;20417;-87
2023/05/04 00:24:48;;;;;;;11.32;7.43;;;;;;;15.36;60.02;100166.50;4333164;33;20182;-88
2023/05/04 00:27:13;;;;;;;9.65;6.70;;;;;;;15.49;60.03;100166.81;4334348;33;20095;-88
2023/05/04 00:29:39;;;;;;;9.23;6.78;;;;;;;15.60;60.03;100154.06;4333910;33;20134;-88
2023/05/04 00:32:04;;;;;;;12.32;8.20;;;;;;;15.53;60.02;100157.88;4320874;33;20155;-88
2023/05/04 00:34:30;;;;;;;9.82;6.87;;;;;;;15.33;60.02;100154.38;4320202;33;20126;-88
2023/05/04 00:36:56;;;;;;;12.85;6.95;;;;;;;15.30;60.02;100156.28;4334253;33;20092;-88
2023/05/04 00:39:21;;;;;;;10.85;6.75;;;;;;;15.40;60.03;100152.34;4334141;33;20136;-88
2023/05/04 00:41:47;;;;;;;9.18;6.60;;;;;;;15.50;60.03;100152.78;4334972;33;20096;-87
2023/05/04 00:44:12;;;;;;;9.73;6.97;;;;;;;15.59;60.03;100155.00;4320473;33;20343;-88
2023/05/04 00:46:38;;;;;;;9.65;7.03;;;;;;;15.40;60.03;100151.50;4320239;33;20759;-87
2023/05/04 00:49:03;;;;;;;10.13;7.05;;;;;;;15.50;60.03;100160.66;4319398;33;20127;-88
2023/05/04 00:51:29;;;;;;;9.07;5.82;;;;;;;15.35;60.02;100156.94;4320145;33;20164;-87
2023/05/04 00:53:56;;;;;;;9.30;6.57;;;;;;;15.52;60.02;100156.19;4332460;33;20204;-87
2023/05/04 00:56:22;;;;;;;8.35;6.80;;;;;;;15.35;60.02;100149.06;4320246;33;20103;-88
2023/05/04 00:58:48;;;;;;;11.38;7.32;;;;;;;15.23;60.01;100162.75;4320349;33;20159;-88
2023/05/04 01:01:13;;;;;;;9.30;6.35;;;;;;;15.43;60.03;100157.47;4320366;33;20107;-87
2023/05/04 01:03:39;;;;;;;10.60;6.95;;;;;;;15.26;60.02;100149.50;4340479;33;20139;-87
2023/05/04 01:06:16;;;;;;;10.73;6.60;;;;;;;15.32;60.03;100154.44;4327720;33;34127;-88
2023/05/04 01:08:46;;;;;;;9.52;6.90;;;;;;;15.26;60.02;100155.59;4337245;33;21059;-87
2023/05/04 01:11:20;;;;;;;9.45;6.95;;;;;;;15.17;60.02;100152.53;4332723;33;20100;-87
2023/05/04 01:13:45;;;;;;;9.73;5.90;;;;;;;15.25;60.02;100153.88;4333615;33;20089;-87
2023/05/04 01:16:11;;;;;;;10.65;7.18;;;;;;;15.39;60.02;100155.91;4332319;33;20159;-87
2023/05/04 01:18:36;;;;;;;10.40;6.68;;;;;;;15.30;60.01;100153.69;4320014;33;20151;-87
2023/05/04 01:21:02;;;;;;;8.30;6.32;;;;;;;15.34;60.02;100150.00;4319384;33;25354;-88
2023/05/04 01:23:27;;;;;;;10.60;6.37;;;;;;;15.38;60.02;100148.97;4307634;33;20130;-86
2023/05/04 01:26:03;;;;;;;8.52;6.05;;;;;;;15.36;60.02;100154.25;4331856;33;20378;-87
2023/05/04 01:28:41;;;;;;;9.90;6.82;;;;;;;15.22;60.01;100155.78;4320155;33;20166;-86
2023/05/04 01:31:07;;;;;;;10.27;7.22;;;;;;;15.27;60.02;100151.19;4319803;33;20084;-86
2023/05/04 01:33:33;;;;;;;9.38;6.45;;;;;;;15.43;60.03;100152.22;4319713;33;20155;-86
2023/05/04 01:35:58;;;;;;;9.70;6.03;;;;;;;15.20;60.01;100160.25;4331670;33;21460;-86
2023/05/04 01:38:25;;;;;;;9.55;6.60;;;;;;;15.19;60.01;100156.78;4320559;33;20364;-87
2023/05/04 01:40:50;;;;;;;9.93;6.62;;;;;;;15.14;60.01;100152.66;4334149;33;20109;-86
2023/05/04 01:43:15;;;;;;;9.63;6.80;;;;;;;15.27;60.02;100153.81;4333659;33;25769;-86
2023/05/04 01:45:41;;;;;;;10.93;7.07;;;;;;;15.28;60.01;100152.91;4320243;33;20104;-87
2023/05/04 01:48:06;;;;;;;12.52;6.60;;;;;;;15.19;60.01;100154.16;4332662;33;20095;-86
2023/05/04 01:50:32;;;;;;;10.35;6.70;;;;;;;15.15;60.01;100149.97;4332812;33;20122;-87
2023/05/04 01:52:57;;;;;;;8.73;6.87;;;;;;;15.17;60.02;100148.16;4332779;33;20092;-87
2023/05/04 01:55:23;;;;;;;10.60;6.40;;;;;;;15.19;60.01;100148.94;4332775;33;20147;-86
2023/05/04 01:57:48;;;;;;;14.57;6.10;;;;;;;15.14;60.00;100152.66;4319618;33;20115;-86
2023/05/04 02:00:14;;;;;;;12.68;7.50;;;;;;;15.18;60.02;100149.84;4334091;33;33925;-86
2023/05/04 02:02:40;;;;;;;8.40;6.22;;;;;;;15.13;60.00;100146.56;4321772;33;20159;-86
2023/05/04 02:05:06;;;;;;;9.13;6.87;;;;;;;15.08;60.00;100145.91;4334880;33;20147;-85
2023/05/04 02:07:31;;;;;;;10.10;7.10;;;;;;;15.08;60.00;100147.69;4335155;33;20490;-86
2023/05/04 02:09:56;;;;;;;8.90;6.75;;;;;;;15.03;60.01;100153.97;4334704;33;20147;-86
2023/05/04 02:12:22;;;;;;;10.75;6.65;;;;;;;15.16;60.00;100142.97;4334303;33;27991;-86
2023/05/04 02:14:47;;;;;;;9.80;7.40;;;;;;;15.13;60.01;100150.94;4320855;33;31248;-88
2023/05/04 02:17:13;;;;;;;9.85;7.32;;;;;;;15.11;60.01;100145.78;4334853;33;20155;-87
2023/05/04 02:19:38;;;;;;;9.77;7.30;;;;;;;15.26;60.02;100139.84;4321819;33;20374;-86
2023/05/04 02:22:03;;;;;;;9.70;6.95;;;;;;;15.16;60.00;100140.34;4336132;33;20100;-87
2023/05/04 02:24:29;;;;;;;11.25;7.65;;;;;;;15.17;60.02;100144.66;4311694;33;20125;-86
2023/05/04 02:26:54;;;;;;;10.32;7.65;;;;;;;15.10;60.01;100140.59;4327336;33;20133;-87
2023/05/04 02:29:20;;;;;;;9.57;7.40;;;;;;;15.02;59.99;100138.31;4336529;33;26219;-86
2023/05/04 02:31:45;;;;;;;10.93;7.35;;;;;;;14.85;59.99;100144.28;4347963;33;20107;-86
2023/05/04 02:34:10;;;;;;;10.93;7.53;;;;;;;14.98;60.00;100137.59;4344617;33;20100;-85
2023/05/04 02:36:36;;;;;;;13.35;8.00;;;;;;;14.61;59.98;100142.72;4341560;33;20144;-86
2023/05/04 02:39:01;;;;;;;13.48;7.87;;;;;;;15.06;60.01;100137.25;4334583;33;20143;-86
2023/05/04 02:41:27;;;;;;;12.13;7.53;;;;;;;14.60;59.98;100141.87;4334743;33;20122;-86
2023/05/04 02:43:52;;;;;;;10.93;7.57;;;;;;;14.55;59.98;100145.59;4321210;33;20521;-88
2023/05/04 02:46:21;;;;;;;16.02;9.00;;;;;;;14.53;59.98;100150.06;4334186;33;23752;-88
2023/05/04 02:48:46;;;;;;;13.65;9.23;;;;;;;14.49;59.97;100146.72;4334776;33;20424;-86
2023/05/04 02:51:11;;;;;;;15.07;8.90;;;;;;;14.45;59.97;100150.38;4334001;33;34423;-86
2023/05/04 02:53:37;;;;;;;12.80;8.73;;;;;;;14.57;59.98;100149.00;4333310;33;22795;-87
2023/05/04 02:56:02;;;;;;;14.35;9.68;;;;;;;14.49;59.98;100151.97;4334459;33;29029;-87
2023/05/04 02:58:27;;;;;;;12.45;8.93;;;;;;;14.39;59.96;100148.81;4323638;33;20088;-87
2023/05/04 03:00:54;;;;;;;13.00;9.50;;;;;;;14.54;59.97;100154.38;4333356;33;20147;-87
2023/05/04 03:03:20;;;;;;;15.07;9.38;;;;;;;14.33;59.96;100154.31;4321531;33;20096;-87
2023/05/04 03:05:45;;;;;;;16.40;9.50;;;;;;;14.34;59.97;100157.78;4321417;33;20083;-89
2023/05/04 03:08:11;;;;;;;13.40;9.30;;;;;;;14.30;59.96;100157.06;4334488;33;23102;-88
2023/05/04 03:10:36;;;;;;;15.20;9.93;;;;;;;14.35;59.97;100154.25;4332027;33;28097;-88
2023/05/04 03:13:04;;;;;;;14.98;9.45;;;;;;;14.35;59.97;100149.88;4321073;33;20123;-88
2023/05/04 03:15:31;;;;;;;16.35;10.48;;;;;;;14.12;59.96;100155.19;4321420;33;20113;-88
2023/05/04 03:17:56;;;;;;;17.12;9.75;;;;;;;14.16;59.95;100158.53;4322610;33;20080;-88
2023/05/04 03:20:22;;;;;;;13.38;9.60;;;;;;;14.15;59.96;100162.91;4333120;33;20147;-87
2023/05/04 03:22:47;;;;;;;12.35;9.23;;;;;;;14.34;59.97;100161.25;4334153;33;20143;-87
2023/05/04 03:25:12;;;;;;;17.35;9.85;;;;;;;14.17;59.95;100161.06;4333655;33;34983;-87
2023/05/04 03:27:38;;;;;;;14.30;9.88;;;;;;;14.09;59.95;100163.16;4333752;33;34025;-87
2023/05/04 03:30:04;;;;;;;15.80;10.80;;;;;;;14.17;59.95;100161.06;4333241;33;20141;-87
2023/05/04 03:32:30;;;;;;;15.52;9.95;;;;;;;14.10;59.96;100164.88;4334465;33;20163;-87
2023/05/04 03:34:55;;;;;;;16.62;10.13;;;;;;;14.12;59.95;100163.03;4334297;33;20123;-87
2023/05/04 03:37:21;;;;;;;14.30;9.23;;;;;;;14.15;59.96;100162.91;4321089;33;20091;-89
2023/05/04 03:39:47;;;;;;;14.73;9.55;;;;;;;14.03;59.95;100163.41;4321304;33;20175;-89
2023/05/04 03:42:12;;;;;;;16.50;9.43;;;;;;;14.09;59.96;100169.25;4321340;33;20148;-89
2023/05/04 03:44:38;;;;;;;15.50;10.55;;;;;;;14.11;59.96;100167.41;4333614;33;20095;-88
2023/05/04 03:47:03;;;;;;;14.45;9.68;;;;;;;14.11;59.96;100167.41;4333969;33;25540;-88
2023/05/04 03:49:28;;;;;;;17.67;11.07;;;;;;;14.06;59.95;100165.91;4321542;33;20161;-88
2023/05/04 03:51:54;;;;;;;14.18;9.32;;;;;;;14.07;59.95;100170.22;4322179;33;20142;-88
2023/05/04 03:54:19;;;;;;;15.77;10.05;;;;;;;14.08;59.95;100164.94;4335984;33;20493;-88
2023/05/04 03:56:45;;;;;;;14.82;9.82;;;;;;;14.32;59.96;100170.09;4334276;33;20441;-89
2023/05/04 03:59:10;;;;;;;13.80;10.23;;;;;;;14.30;59.96;100174.53;4321004;33;20096;-88
2023/05/04 04:01:36;;;;;;;14.05;9.57;;;;;;;14.29;59.97;100181.53;4334487;33;20472;-89
2023/05/04 04:04:01;;;;;;;13.23;9.45;;;;;;;14.49;59.98;100172.06;4320252;33;26638;-89
2023/05/04 04:06:26;;;;;;;13.60;9.93;;;;;;;14.64;59.99;100177.50;4320353;33;20183;-89
2023/05/04 04:08:52;;;;;;;15.40;10.43;;;;;;;14.58;59.98;100174.28;4320723;33;20143;-90
2023/05/04 04:11:17;;;;;;;13.95;9.20;;;;;;;14.63;59.98;100177.56;4320534;33;20096;-90
2023/05/04 04:13:43;;;;;;;13.45;9.52;;;;;;;14.68;59.98;100179.09;4321254;33;20131;-89
2023/05/04 04:16:08;;;;;;;14.43;9.60;;;;;;;14.64;59.98;100180.13;4322628;33;20115;-89
2023/05/04 04:18:33;;;;;;;14.52;9.98;;;;;;;14.78;59.98;100184.78;4308212;33;20454;-89
2023/05/04 04:20:59;;;;;;;14.68;9.57;;;;;;;14.90;59.99;100183.41;4320541;33;20100;-89
2023/05/04 04:23:25;;;;;;;15.77;10.00;;;;;;;14.86;59.99;100180.06;4320825;33;20087;-88
2023/05/04 04:25:52;;;;;;;13.85;10.05;;;;;;;14.97;60.00;100177.00;4320348;33;20143;-88
2023/05/04 04:28:18;;;;;;;13.27;9.93;;;;;;;14.98;60.00;100182.19;4334158;33;20096;-88
2023/05/04 04:30:43;;;;;;;16.60;10.50;;;;;;;15.18;60.01;100175.22;4321662;33;20120;-88
2023/05/04 04:33:09;;;;;;;13.13;9.50;;;;;;;15.04;60.01;100179.28;4308732;33;20182;-88
2023/05/04 04:35:35;;;;;;;17.73;9.20;;;;;;;15.13;60.01;100180.63;4323109;33;20088;-87
2023/05/04 04:38:01;;;;;;;13.20;8.93;;;;;;;15.28;60.02;100179.97;4334620;33;20096;-88
2023/05/04 04:40:26;;;;;;;11.45;7.95;;;;;;;15.50;60.03;100174.62;4333130;33;20088;-88
2023/05/04 04:42:52;;;;;;;13.70;8.63;;;;;;;15.53;60.02;100177.09;4334146;33;20083;-88
2023/05/04 04:45:19;;;;;;;10.85;8.07;;;;;;;15.68;60.03;100174.75;4320391;33;20428;-88
2023/05/04 04:47:46;;;;;;;9.05;6.65;;;;;;;15.78;60.03;100173.38;4334871;33;20095;-88
2023/05/04 04:50:11;;;;;;;10.52;7.15;;;;;;;15.74;60.04;100171.81;4333720;33;20432;-88
2023/05/04 04:52:37;;;;;;;9.15;6.32;;;;;;;15.95;60.06;100176.91;4334018;33;20430;-88
2023/05/04 04:55:04;;;;;;;10.43;6.45;;;;;;;16.19;60.07;100182.78;4320662;33;20429;-88
2023/05/04 04:57:30;;;;;;;12.10;6.22;;;;;;;16.03;60.05;100186.19;4320451;33;20100;-88
2023/05/04 04:59:56;;;;;;;7.18;5.65;;;;;;;16.21;60.06;100182.69;4333561;33;20143;-88
2023/05/04 05:02:21;;;;;;;7.00;5.18;;;;;;;16.23;60.06;100181.69;4320305;33;20151;-87
2023/05/04 05:04:47;;;;;;;9.40;6.78;;;;;;;16.37;60.07;100181.03;4321745;33;20493;-87
2023/05/04 05:07:12;;;;;;;7.25;5.45;;;;;;;16.39;60.07;100188.84;4307791;33;20167;-88
2023/05/04 05:09:38;;;;;;;6.75;5.43;;;;;;;16.56;60.09;100188.84;4319691;33;27267;-87
2023/05/04 05:12:06;;;;;;;7.20;4.90;;;;;;;16.50;60.08;100178.66;4308797;33;20096;-85
2023/05/04 05:14:32;;;;;;;6.82;4.97;;;;;;;16.66;60.09;100178.75;4307906;33;20122;-87
2023/05/04 05:16:58;;;;;;;4.95;3.80;;;;;;;16.79;60.10;100182.47;4333825;33;20107;-85
2023/05/04 05:19:24;;;;;;;5.68;3.90;;;;;;;16.91;60.10;100183.63;4319837;33;20124;-87
2023/05/04 05:21:49;;;;;;;5.53;3.97;;;;;;;17.02;60.11;100178.66;4333086;33;20111;-86
2023/05/04 05:24:16;;;;;;;4.78;3.62;;;;;;;17.15;60.12;100177.97;4333370;33;20115;-85
2023/05/04 05:26:41;;;;;;;5.60;4.15;;;;;;;17.31;60.11;100183.28;4332186;33;20140;-85
2023/05/04 05:29:07;;;;;;;7.28;3.50;;;;;;;17.30;60.12;100186.84;4333501;33;20145;-87
2023/05/04 05:31:32;;;;;;;4.65;2.62;;;;;;;17.53;60.13;100179.50;4320112;33;20117;-86
2023/05/04 05:33:58;;;;;;;3.75;2.80;;;;;;;17.76;60.14;100176.50;4334211;33;20534;-85
2023/05/04 05:36:23;;;;;;;5.70;2.53;;;;;;;17.83;60.15;100179.66;4334924;33;20192;-86
2023/05/04 05:38:49;;;;;;;4.25;3.03;;;;;;;18.02;60.16;100181.19;4321566;33;20174;-87
2023/05/04 05:41:14;;;;;;;5.32;2.97;;;;;;;18.04;60.16;100179.31;4323878;33;20147;-87
2023/05/04 05:43:40;;;;;;;4.75;2.85;;;;;;;18.25;60.18;100179.87;4321864;33;20147;-87
2023/05/04 05:46:05;;;;;;;3.45;2.20;;;;;;;18.34;60.18;100183.78;4335229;33;20450;-87
2023/05/04 05:48:31;;;;;;;2.95;2.40;;;;;;;18.21;60.17;100185.41;4333516;33;20096;-87
2023/05/04 05:50:56;;;;;;;4.65;2.60;;;;;;;18.37;60.18;100186.22;4334258;33;20398;-87
2023/05/04 05:53:21;;;;;;;4.85;2.87;;;;;;;18.53;60.18;100187.06;4325699;33;20119;-86
2023/05/04 05:55:47;;;;;;;4.10;2.78;;;;;;;18.67;60.19;100183.63;4348596;33;20091;-86
2023/05/04 05:58:12;;;;;;;3.65;2.97;;;;;;;18.69;60.20;100190.56;4326141;33;20087;-87
2023/05/04 06:00:38;;;;;;;2.85;2.33;;;;;;;18.55;60.20;100189.59;4337497;33;20130;-86
2023/05/04 06:03:03;;;;;;;2.87;2.40;;;;;;;18.74;60.20;100194.69;4334956;33;20146;-86
2023/05/04 06:05:28;;;;;;;3.03;2.62;;;;;;;18.97;60.21;100199.47;4334325;33;20185;-87
2023/05/04 06:07:54;;;;;;;3.37;2.12;;;;;;;19.29;60.23;100187.81;4321459;33;20406;-87
2023/05/04 06:10:19;;;;;;;2.72;2.17;;;;;;;19.40;60.24;100188.94;4333884;33;20465;-87
2023/05/04 06:12:45;;;;;;;2.40;1.80;;;;;;;19.62;60.25;100192.81;4321769;33;20126;-87
2023/05/04 06:15:12;;;;;;;2.85;1.80;;;;;;;19.63;60.25;100185.75;4321905;33;20104;-87
2023/05/04 06:17:37;;;;;;;3.15;2.10;;;;;;;19.78;60.26;100187.44;4335316;33;20155;-87
2023/05/04 06:20:03;;;;;;;3.37;2.72;;;;;;;19.82;60.25;100185.44;4309600;33;20139;-87
2023/05/04 06:22:30;;;;;;;2.72;1.92;;;;;;;20.08;60.26;100184.62;4321766;33;20242;-87
2023/05/04 06:24:55;;;;;;;2.72;1.73;;;;;;;20.13;60.27;100185.22;4321787;33;20112;-87
2023/05/04 06:27:21;;;;;;;2.05;1.70;;;;;;;20.28;60.29;100187.78;4321436;33;20487;-87
2023/05/04 06:29:46;;;;;;;3.60;2.00;;;;;;;20.41;60.29;100194.00;4322533;33;20154;-87
2023/05/04 06:32:11;;;;;;;2.80;1.65;;;;;;;20.39;60.28;100190.59;4334813;33;20121;-87
2023/05/04 06:34:37;;;;;;;2.00;1.80;;;;;;;20.50;60.29;100194.25;4334801;33;20099;-87
2023/05/04 06:37:02;;;;;;;5.12;2.10;;;;;;;20.75;60.30;100193.47;4321563;33;20103;-87
2023/05/04 06:39:28;;;;;;;2.05;1.70;;;;;;;20.93;60.31;100196.66;4321541;33;20127;-87
2023/05/04 06:41:54;;;;;;;2.05;1.55;;;;;;;21.17;60.32;100195.94;4333563;33;20504;-87
2023/05/04 06:44:20;;;;;;;2.62;1.80;;;;;;;21.37;60.34;100196.31;4309366;33;20115;-87
2023/05/04 06:46:49;;;;;;;3.20;1.92;;;;;;;21.28;60.33;100196.06;4320755;33;20104;-87
2023/05/04 06:49:16;;;;;;;2.87;2.30;;;;;;;21.38;60.34;100194.50;4334955;33;20153;-87
2023/05/04 06:51:41;;;;;;;3.58;2.17;;;;;;;21.42;60.34;100196.81;4322464;33;20096;-88
2023/05/04 06:54:07;;;;;;;3.10;2.00;;;;;;;21.39;60.34;100189.09;4334862;33;20129;-88
2023/05/04 06:56:33;;;;;;;3.35;1.80;;;;;;;21.60;60.35;100192.03;4333038;33;24440;-87
2023/05/04 06:58:58;;;;;;;1.98;1.67;;;;;;;21.72;60.36;100196.47;4333485;33;20394;-87
2023/05/04 07:01:24;;;;;;;4.15;1.98;;;;;;;21.95;60.36;100196.63;4334962;33;20127;-87
2023/05/04 07:03:49;;;;;;;4.12;1.75;;;;;;;21.98;60.37;100196.37;4333480;33;20175;-87
2023/05/04 07:06:14;;;;;;;2.90;1.60;;;;;;;21.75;60.36;100200.69;4334781;33;20160;-87
2023/05/04 07:08:40;;;;;;;2.12;1.60;;;;;;;21.74;60.36;100199.00;4333620;33;20103;-87
2023/05/04 07:11:05;;;;;;;3.55;1.77;;;;;;;21.90;60.37;100202.25;4334885;33;20106;-87
2023/05/04 07:13:31;;;;;;;2.85;1.73;;;;;;;22.05;60.37;100198.53;4333950;33;20107;-87
2023/05/04 07:15:56;;;;;;;1.98;1.77;;;;;;;22.22;60.39;100199.09;4336100;33;20088;-87
2023/05/04 07:18:22;;;;;;;2.60;1.60;;;;;;;22.21;60.38;100197.41;4335186;33;20421;-88
2023/05/04 07:20:47;;;;;;;3.70;2.10;;;;;;;21.95;60.38;100201.91;4336964;33;20448;-87
2023/05/04 07:23:13;;;;;;;2.45;1.62;;;;;;;21.68;60.36;100200.28;4337657;33;20150;-87
2023/05/04 07:25:38;;;;;;;6.30;1.87;;;;;;;21.38;60.34;100211.25;4326244;33;20564;-87
2023/05/04 07:28:04;;;;;;;2.10;1.77;;;;;;;21.55;60.35;100203.94;4333694;33;20158;-88
2023/05/04 07:30:31;;;;;;;2.00;1.52;;;;;;;21.35;60.34;100205.31;4321238;33;20158;-87
2023/05/04 07:32:56;;;;;;;3.97;1.92;;;;;;;21.46;60.35;100200.09;4333546;33;20130;-88
2023/05/04 07:35:22;;;;;;;5.15;1.70;;;;;;;21.42;60.35;100210.06;4334246;33;23193;-87
2023/05/04 07:37:48;;;;;;;2.00;1.50;;;;;;;21.21;60.34;100210.66;4334569;33;20444;-88
2023/05/04 07:40:13;;;;;;;3.42;1.98;;;;;;;21.05;60.33;100203.75;4321151;33;20174;-87
2023/05/04 07:42:39;;;;;;;2.00;1.50;;;;;;;21.08;60.33;100205.38;4334868;33;20140;-88
2023/05/04 07:45:07;;;;;;;2.25;1.70;;;;;;;20.92;60.32;100216.16;4334771;33;20117;-88
2023/05/04 07:47:33;;;;;;;3.45;1.50;;;;;;;21.06;60.33;100208.12;4322483;33;20087;-87
2023/05/04 07:49:58;;;;;;;2.50;1.77;;;;;;;21.23;60.34;100200.81;4334456;33;20101;-87
2023/05/04 07:52:23;;;;;;;2.17;1.65;;;;;;;21.45;60.35;100201.91;4333800;33;28104;-87
2023/05/04 07:54:52;;;;;;;2.62;1.70;;;;;;;21.59;60.36;100205.41;4321323;33;20465;-87
2023/05/04 07:57:18;;;;;;;4.10;1.67;;;;;;;21.41;60.35;100203.06;4308370;33;20122;-87
2023/05/04 07:59:44;;;;;;;1.60;1.33;;;;;;;21.60;60.36;100200.00;4321238;33;20088;-87
2023/05/04 08:02:09;;;;;;;2.67;1.50;;;;;;;21.67;60.36;100203.03;4320841;33;20150;-88
2023/05/04 08:04:35;;;;;;;3.28;1.50;;;;;;;21.68;60.36;100196.78;4308728;33;20107;-88
2023/05/04 08:07:00;;;;;;;3.33;1.77;;;;;;;21.92;60.37;100202.13;4321354;33;20080;-88
2023/05/04 08:09:25;;;;;;;3.22;1.85;;;;;;;21.97;60.38;100200.84;4334051;33;33723;-87
2023/05/04 08:11:51;;;;;;;2.30;1.62;;;;;;;21.86;60.38;100195.47;4320846;33;20136;-87
2023/05/04 08:14:16;;;;;;;2.90;1.85;;;;;;;21.75;60.37;100198.03;4334363;33;20139;-87
2023/05/04 08:16:42;;;;;;;3.22;1.87;;;;;;;21.99;60.38;100195.44;4320952;33;20170;-87
2023/05/04 08:19:08;;;;;;;2.42;1.80;;;;;;;22.33;60.40;100202.66;4334023;33;20096;-87
2023/05/04 08:21:34;;;;;;;1.77;1.37;;;;;;;22.64;60.42;100203.88;4332904;33;20091;-87
2023/05/04 08:23:59;;;;;;;3.10;2.10;;;;;;;23.01;60.43;100205.63;4320813;33;20387;-88
2023/05/04 08:26:25;;;;;;;1.80;1.60;;;;;;;23.23;60.44;100209.16;4319995;33;29531;-87
2023/05/04 08:28:51;;;;;;;1.80;1.45;;;;;;;23.62;60.47;100214.16;4333436;33;20120;-87
2023/05/04 08:31:20;;;;;;;2.30;1.80;;;;;;;23.92;60.48;100206.44;4334223;33;29482;-87
2023/05/04 08:33:47;;;;;;;2.67;2.20;;;;;;;24.04;60.48;100205.41;4335542;33;20091;-87
2023/05/04 08:36:12;;;;;;;2.17;1.80;;;;;;;24.20;60.50;100202.38;4336133;33;20163;-87
2023/05/04 08:38:38;;;;;;;3.87;2.22;;;;;;;24.17;60.49;100206.13;4335975;33;20957;-87
2023/05/04 08:41:03;;;;;;;2.15;1.67;;;;;;;24.18;60.49;100212.28;4336971;33;31182;-87
2023/05/04 08:43:29;;;;;;;1.70;1.60;;;;;;;24.15;60.49;100208.06;4330306;33;20115;-87
2023/05/04 08:45:55;;;;;;;1.62;1.52;;;;;;;24.33;60.50;100207.56;4320869;33;20110;-87
2023/05/04 08:48:21;;;;;;;2.50;1.80;;;;;;;24.41;60.50;100208.62;4307926;33;25549;-87
2023/05/04 08:50:46;;;;;;;5.45;2.05;;;;;;;24.63;60.52;100204.19;4332857;33;20392;-87
2023/05/04 08:53:13;;;;;;;5.43;1.50;;;;;;;24.68;60.53;100202.00;4320790;33;20115;-87
2023/05/04 08:55:38;;;;;;;5.07;1.80;;;;;;;24.97;60.54;100197.72;4320954;33;20084;-87
2023/05/04 08:58:06;;;;;;;2.40;2.05;;;;;;;24.91;60.54;100198.25;4320475;33;20110;-87
2023/05/04 09:00:32;;;;;;;3.80;1.73;;;;;;;25.18;60.55;100192.41;4320856;33;20108;-87
2023/05/04 09:02:58;;;;;;;2.25;1.90;;;;;;;25.43;60.56;100195.63;4332716;33;20103;-87
2023/05/04 09:05:25;;;;;;;4.55;2.17;;;;;;;25.21;60.55;100196.63;4335802;33;20083;-87
2023/05/04 09:07:51;;;;;;;5.37;1.98;;;;;;;25.25;60.55;100198.06;4332686;33;20106;-87
2023/05/04 09:10:17;;;;;;;4.70;2.95;;;;;;;25.51;60.56;100191.31;4321999;33;20100;-87
2023/05/04 09:12:42;;;;;;;12.13;3.97;;;;;;;25.48;60.57;100198.72;4322193;33;20451;-87
2023/05/04 09:15:16;;;;;;;4.60;3.00;;;;;;;24.98;60.55;100202.06;4321804;33;20111;-87
2023/05/04 09:17:41;;;;;;;5.22;3.08;;;;;;;24.61;60.52;100200.81;4335522;33;20114;-87
2023/05/04 09:20:08;;;;;;;3.85;2.65;;;;;;;24.71;60.53;100197.25;4334323;33;20100;-87
2023/05/04 09:22:34;;;;;;;3.17;2.40;;;;;;;24.86;60.54;100199.63;4335626;33;20122;-87
2023/05/04 09:25:05;;;;;;;5.25;2.10;;;;;;;24.83;60.53;100197.19;4335394;33;20147;-87
2023/05/04 09:27:31;;;;;;;2.95;1.90;;;;;;;24.67;60.51;100198.47;4336179;33;20104;-87
2023/05/04 09:29:56;;;;;;;4.07;2.50;;;;;;;24.76;60.53;100196.84;4335160;33;20121;-86
2023/05/04 09:32:22;;;;;;;3.67;2.20;;;;;;;24.64;60.53;100201.41;4333035;33;34723;-87
2023/05/04 09:34:52;;;;;;;4.57;1.95;;;;;;;24.52;60.51;100198.91;4322258;33;20151;-88
2023/05/04 09:37:19;;;;;;;2.90;2.00;;;;;;;24.46;60.52;100194.94;4334237;33;20351;-87
2023/05/04 09:39:56;;;;;;;3.78;2.17;;;;;;;24.76;60.53;100197.69;4335769;33;20178;-87
2023/05/04 09:42:22;;;;;;;6.22;2.30;;;;;;;24.61;60.52;100193.69;4322163;33;20179;-88
2023/05/04 09:45:01;;;;;;;3.12;2.55;;;;;;;24.75;60.53;100196.00;4322285;33;20172;-88
2023/05/04 09:47:35;;;;;;;3.27;2.20;;;;;;;24.74;60.54;100194.31;4335609;33;20080;-88
2023/05/04 09:50:16;;;;;;;4.07;2.17;;;;;;;24.85;60.54;100193.44;4335573;33;20436;-88
2023/05/04 09:52:43;;;;;;;5.93;4.55;;;;;;;25.02;60.54;100184.88;4322044;33;20099;-87
2023/05/04 09:55:12;;;;;;;5.53;4.00;;;;;;;25.22;60.56;100183.16;4322167;33;20088;-87
2023/05/04 09:57:39;;;;;;;9.68;4.10;;;;;;;25.06;60.54;100185.44;4322072;33;20118;-87
2023/05/04 10:00:05;;;;;;;6.15;4.40;;;;;;;24.89;60.53;100188.69;4322340;33;20100;-87
2023/05/04 10:02:32;;;;;;;7.65;4.30;;;;;;;24.82;60.52;100187.50;4336298;33;20485;-87
2023/05/04 10:04:57;;;;;;;6.57;4.57;;;;;;;24.72;60.53;100180.31;4322051;33;20103;-87
2023/05/04 10:07:23;;;;;;;6.57;4.35;;;;;;;24.52;60.53;100178.47;4321934;33;20146;-87
2023/05/04 10:09:49;;;;;;;5.82;4.20;;;;;;;24.67;60.52;100176.34;4321882;33;20151;-87
2023/05/04 10:12:14;;;;;;;8.40;4.20;;;;;;;24.75;60.54;100173.88;4333896;33;20750;-87
2023/05/04 10:14:41;;;;;;;5.35;3.85;;;;;;;24.86;60.54;100159.66;4335054;33;20184;-88
2023/05/04 10:17:31;;;;;;;12.45;4.75;;;;;;;24.95;60.54;100169.53;4322135;33;20185;-87
2023/05/04 10:20:14;;;;;;;6.30;3.97;;;;;;;25.04;60.54;100163.44;4335284;33;20104;-87
2023/05/04 10:23:15;;;;;;;4.65;3.62;;;;;;;25.03;60.55;100167.06;4322880;33;20103;-88
2023/05/04 10:25:51;;;;;;;5.72;4.10;;;;;;;24.94;60.54;100159.84;4313648;33;20114;-87
2023/05/04 10:28:25;;;;;;;6.37;3.15;;;;;;;25.04;60.55;100160.78;4321945;33;20110;-87
2023/05/04 10:30:57;;;;;;;3.75;3.00;;;;;;;25.30;60.57;100159.37;4322398;33;20124;-87
2023/05/04 10:33:23;;;;;;;5.40;3.60;;;;;;;25.37;60.55;100155.22;4321787;33;20754;-87
2023/05/04 10:35:50;;;;;;;4.45;3.22;;;;;;;25.56;60.57;100149.13;4321664;33;20161;-88
2023/05/04 10:38:16;;;;;;;6.78;3.00;;;;;;;25.81;60.59;100147.81;4322340;33;20092;-87
2023/05/04 10:40:41;;;;;;;5.62;3.40;;;;;;;25.99;60.59;100139.97;4335267;33;20155;-88
2023/05/04 10:43:07;;;;;;;4.72;3.10;;;;;;;26.15;60.60;100145.59;4335599;33;20146;-87
2023/05/04 10:45:39;;;;;;;5.78;3.20;;;;;;;26.13;60.61;100139.56;4321653;33;20087;-88
2023/05/04 10:48:06;;;;;;;4.60;3.03;;;;;;;26.46;60.61;100138.34;4335025;33;20102;-88
2023/05/04 10:50:45;;;;;;;4.07;3.15;;;;;;;26.84;60.64;100129.44;4321593;33;20509;-87
2023/05/04 10:53:11;;;;;;;2.83;2.53;;;;;;;27.26;60.65;100128.22;4321482;33;20130;-87
2023/05/04 10:55:44;;;;;;;5.55;3.62;;;;;;;27.52;60.68;100123.88;4334862;33;20250;-88
2023/05/04 10:58:13;;;;;;;5.10;3.47;;;;;;;27.78;60.69;100116.88;4321390;33;20637;-87
2023/05/04 11:00:40;;;;;;;3.70;3.12;;;;;;;28.07;60.70;100107.78;4321618;33;20742;-88
2023/05/04 11:03:06;;;;;;;4.25;2.85;;;;;;;28.35;60.71;100106.75;4321891;33;20122;-85
2023/05/04 11:05:44;;;;;;;6.18;3.00;;;;;;;28.45;60.72;100109.34;4333939;33;20095;-85
2023/05/04 11:08:23;;;;;;;5.87;3.10;;;;;;;28.77;60.74;100098.03;4321517;33;20103;-87
2023/05/04 11:11:00;;;;;;;3.33;2.83;;;;;;;29.00;60.75;100093.84;4321445;33;20453;-87
2023/05/04 11:13:25;;;;;;;4.07;3.17;;;;;;;28.86;60.75;100091.72;4321611;33;20120;-87
2023/05/04 11:15:53;;;;;;;3.72;3.17;;;;;;;28.45;60.73;100095.13;4321545;33;20394;-87
2023/05/04 11:18:29;;;;;;;4.47;3.40;;;;;;;28.15;60.71;100099.81;4333868;33;20110;-86